Eleonora E — MEDD4 — position and weather

sailwx.info

Track history (hours):
 
Tides and Currents Weather Stations Pressure Air Temp Water Temp Dewpoint Dewpoint Depression Visibility Wind Speed Wind Dir Waves Ship Positions

Eleonora E

Last reported at 2014-Oct-08 08:33 UTC. Time now 2014-Oct-20 18:02 UTC.
Position N 43°38' E 007°14'.
Warning: this ship's position is 12 days out of date.

Length 50 m; draft 5.2 m.

Type: Sailing vessel. MMSI: 235008680.

Date/timePositionNaut miles runAvg speedWind from/ knotsBaromVisibWave heightAir tempDewpointWater temp
2014-Oct-08 08:33N 43°38' E 007°14'5 4.9
2014-Oct-08 07:33N 43°36' E 007°08'0 0.0
2014-Oct-08 06:33N 43°36' E 007°08'0 0.0
2014-Oct-08 05:34N 43°36' E 007°08'0 0.0
2014-Oct-08 04:33N 43°36' E 007°08'0 0.0
2014-Oct-08 03:33N 43°36' E 007°08'0 0.0
2014-Oct-08 02:33N 43°36' E 007°08'0 0.0
2014-Oct-08 01:33N 43°36' E 007°08'0 0.0
2014-Oct-08 00:34N 43°36' E 007°08'0 0.0
2014-Oct-07 23:33N 43°36' E 007°08'0 0.0
2014-Oct-07 22:33N 43°36' E 007°08'0 0.0
2014-Oct-07 21:33N 43°36' E 007°08'0 0.0
2014-Oct-07 20:33N 43°36' E 007°08'0 0.0
2014-Oct-07 19:33N 43°36' E 007°08'0 0.0
2014-Oct-07 18:33N 43°36' E 007°08'0 0.0
2014-Oct-07 17:33N 43°36' E 007°08'0 0.0
2014-Oct-07 16:33N 43°36' E 007°08'0 0.0
2014-Oct-07 15:33N 43°36' E 007°08'0 0.0
2014-Oct-07 14:33N 43°36' E 007°08'3 3.2
2014-Oct-07 13:33N 43°33' E 007°07'1 1.2
2014-Oct-07 12:33N 43°34' E 007°06'0 0.0
2014-Oct-07 11:33N 43°34' E 007°06'0 0.0
2014-Oct-07 10:33N 43°34' E 007°06'0 0.0
2014-Oct-07 09:33N 43°34' E 007°06'2 1.5
2014-Oct-07 08:33N 43°32' E 007°06'9 0.4
2014-Oct-06 10:33N 43°27' E 006°56'9 9.4
2014-Oct-06 09:33N 43°21' E 006°46'7 3.2
2014-Oct-06 07:18N 43°16' E 006°38'0 0.0
2014-Oct-06 05:19N 43°16' E 006°38'0 0.0
2014-Oct-06 04:27N 43°16' E 006°38'0 0.0
2014-Oct-06 03:32N 43°16' E 006°38'0 0.0
2014-Oct-06 02:10N 43°16' E 006°38'0 0.0
2014-Oct-06 01:22N 43°16' E 006°38'0 0.0
2014-Oct-05 23:26N 43°16' E 006°38'0 0.0
2014-Oct-05 20:11N 43°16' E 006°38'0 0.0
2014-Oct-05 09:06N 43°17' E 006°38'0 0.0
2014-Oct-05 07:22N 43°17' E 006°38'0 0.0
2014-Oct-04 09:23N 43°17' E 006°38'0 0.0
2014-Oct-04 07:12N 43°17' E 006°38'0 0.0
2014-Oct-04 06:17N 43°17' E 006°38'0 0.0
2014-Oct-04 05:25N 43°17' E 006°38'0 0.0
2014-Oct-04 03:22N 43°17' E 006°38'0 0.0
2014-Oct-04 02:15N 43°17' E 006°38'0 0.0
2014-Oct-04 01:10N 43°17' E 006°38'0 0.0
2014-Oct-03 22:30N 43°17' E 006°38'0 0.0
2014-Oct-03 08:25N 43°16' E 006°37'0 0.0
2014-Oct-03 00:31N 43°16' E 006°37'0 0.0
2014-Oct-02 22:07N 43°16' E 006°37'0 0.0
2014-Oct-02 08:04N 43°16' E 006°37'  
2014-Sep-29 06:30N 43°16' E 006°37'0 0.0
2014-Sep-29 01:31N 43°16' E 006°37'0 0.0
2014-Sep-29 00:16N 43°16' E 006°37'0 0.0
2014-Sep-28 22:19N 43°16' E 006°37'0 0.0
2014-Sep-28 21:28N 43°16' E 006°37'5 0.5
2014-Sep-28 11:33N 43°19' E 006°43'1110.3
2014-Sep-28 10:29N 43°26' E 006°55'  
Track history (hours):
 
Tides and Currents Weather Stations Pressure Air Temp Water Temp Dewpoint Dewpoint Depression Visibility Wind Speed Wind Dir Waves Ship Positions

Eleonora E

Last reported at 2014-Oct-08 08:33 UTC. Time now 2014-Oct-20 18:02 UTC.
Position N 43°38' E 007°14'.
Warning: this ship's position is 12 days out of date.

Length 50 m; draft 5.2 m.

Type: Sailing vessel. MMSI: 235008680.

Date/timePositionNaut miles runAvg speedWind from/ knotsBaromVisibWave heightAir tempDewpointWater temp
2014-Oct-08 08:33N 43°38' E 007°14'5 4.9
2014-Oct-08 07:33N 43°36' E 007°08'0 0.0
2014-Oct-08 06:33N 43°36' E 007°08'0 0.0
2014-Oct-08 05:34N 43°36' E 007°08'0 0.0
2014-Oct-08 04:33N 43°36' E 007°08'0 0.0
2014-Oct-08 03:33N 43°36' E 007°08'0 0.0
2014-Oct-08 02:33N 43°36' E 007°08'0 0.0
2014-Oct-08 01:33N 43°36' E 007°08'0 0.0
2014-Oct-08 00:34N 43°36' E 007°08'0 0.0
2014-Oct-07 23:33N 43°36' E 007°08'0 0.0
2014-Oct-07 22:33N 43°36' E 007°08'0 0.0
2014-Oct-07 21:33N 43°36' E 007°08'0 0.0
2014-Oct-07 20:33N 43°36' E 007°08'0 0.0
2014-Oct-07 19:33N 43°36' E 007°08'0 0.0
2014-Oct-07 18:33N 43°36' E 007°08'0 0.0
2014-Oct-07 17:33N 43°36' E 007°08'0 0.0
2014-Oct-07 16:33N 43°36' E 007°08'0 0.0
2014-Oct-07 15:33N 43°36' E 007°08'0 0.0
2014-Oct-07 14:33N 43°36' E 007°08'3 3.2
2014-Oct-07 13:33N 43°33' E 007°07'1 1.2
2014-Oct-07 12:33N 43°34' E 007°06'0 0.0
2014-Oct-07 11:33N 43°34' E 007°06'0 0.0
2014-Oct-07 10:33N 43°34' E 007°06'0 0.0
2014-Oct-07 09:33N 43°34' E 007°06'2 1.5
2014-Oct-07 08:33N 43°32' E 007°06'9 0.4
2014-Oct-06 10:33N 43°27' E 006°56'9 9.4
2014-Oct-06 09:33N 43°21' E 006°46'7 3.2
2014-Oct-06 07:18N 43°16' E 006°38'0 0.0
2014-Oct-06 05:19N 43°16' E 006°38'0 0.0
2014-Oct-06 04:27N 43°16' E 006°38'0 0.0
2014-Oct-06 03:32N 43°16' E 006°38'0 0.0
2014-Oct-06 02:10N 43°16' E 006°38'0 0.0
2014-Oct-06 01:22N 43°16' E 006°38'0 0.0
2014-Oct-05 23:26N 43°16' E 006°38'0 0.0
2014-Oct-05 20:11N 43°16' E 006°38'0 0.0
2014-Oct-05 09:06N 43°17' E 006°38'0 0.0
2014-Oct-05 07:22N 43°17' E 006°38'0 0.0
2014-Oct-04 09:23N 43°17' E 006°38'0 0.0
2014-Oct-04 07:12N 43°17' E 006°38'0 0.0
2014-Oct-04 06:17N 43°17' E 006°38'0 0.0
2014-Oct-04 05:25N 43°17' E 006°38'0 0.0
2014-Oct-04 03:22N 43°17' E 006°38'0 0.0
2014-Oct-04 02:15N 43°17' E 006°38'0 0.0
2014-Oct-04 01:10N 43°17' E 006°38'0 0.0
2014-Oct-03 22:30N 43°17' E 006°38'0 0.0
2014-Oct-03 08:25N 43°16' E 006°37'0 0.0
2014-Oct-03 00:31N 43°16' E 006°37'0 0.0
2014-Oct-02 22:07N 43°16' E 006°37'0 0.0
2014-Oct-02 08:04N 43°16' E 006°37'  
2014-Sep-29 06:30N 43°16' E 006°37'0 0.0
2014-Sep-29 01:31N 43°16' E 006°37'0 0.0
2014-Sep-29 00:16N 43°16' E 006°37'0 0.0
2014-Sep-28 22:19N 43°16' E 006°37'0 0.0
2014-Sep-28 21:28N 43°16' E 006°37'5 0.5
2014-Sep-28 11:33N 43°19' E 006°43'1110.3
2014-Sep-28 10:29N 43°26' E 006°55'  

Dump ship's entire track history